sensor_id;sensor_type;location;lat;lon;timestamp;P1;durP1;ratioP1;P2;durP2;ratioP2
9807;SDS011;4943;52.550;13.462;2023-01-24T00:01:15;9.90;;;6.20;;
9807;SDS011;4943;52.550;13.462;2023-01-24T00:03:45;9.93;;;5.83;;
9807;SDS011;4943;52.550;13.462;2023-01-24T00:06:14;8.40;;;5.20;;
9807;SDS011;4943;52.550;13.462;2023-01-24T00:08:42;8.43;;;4.87;;
9807;SDS011;4943;52.550;13.462;2023-01-24T00:11:11;10.13;;;5.90;;
9807;SDS011;4943;52.550;13.462;2023-01-24T00:13:40;10.83;;;5.87;;
9807;SDS011;4943;52.550;13.462;2023-01-24T00:16:12;10.57;;;6.17;;
9807;SDS011;4943;52.550;13.462;2023-01-24T00:18:42;10.07;;;5.77;;
9807;SDS011;4943;52.550;13.462;2023-01-24T00:21:13;11.23;;;5.10;;
9807;SDS011;4943;52.550;13.462;2023-01-24T00:23:45;11.10;;;5.97;;
9807;SDS011;4943;52.550;13.462;2023-01-24T00:26:15;8.53;;;5.60;;
9807;SDS011;4943;52.550;13.462;2023-01-24T00:28:44;7.37;;;4.47;;
9807;SDS011;4943;52.550;13.462;2023-01-24T00:31:13;7.10;;;4.30;;
9807;SDS011;4943;52.550;13.462;2023-01-24T00:33:41;9.47;;;5.37;;
9807;SDS011;4943;52.550;13.462;2023-01-24T00:36:11;10.27;;;4.93;;
9807;SDS011;4943;52.550;13.462;2023-01-24T00:38:40;6.47;;;4.13;;
9807;SDS011;4943;52.550;13.462;2023-01-24T00:41:08;7.57;;;4.43;;
9807;SDS011;4943;52.550;13.462;2023-01-24T00:43:37;10.37;;;4.87;;
9807;SDS011;4943;52.550;13.462;2023-01-24T00:46:05;9.43;;;5.57;;
9807;SDS011;4943;52.550;13.462;2023-01-24T00:48:35;5.03;;;4.13;;
9807;SDS011;4943;52.550;13.462;2023-01-24T00:51:04;7.03;;;4.60;;
9807;SDS011;4943;52.550;13.462;2023-01-24T00:53:34;6.87;;;4.23;;
9807;SDS011;4943;52.550;13.462;2023-01-24T00:56:03;7.03;;;4.43;;
9807;SDS011;4943;52.550;13.462;2023-01-24T00:58:31;7.00;;;5.10;;
9807;SDS011;4943;52.550;13.462;2023-01-24T01:01:00;10.07;;;4.47;;
9807;SDS011;4943;52.550;13.462;2023-01-24T01:03:30;6.53;;;4.70;;
9807;SDS011;4943;52.550;13.462;2023-01-24T01:05:59;9.73;;;4.90;;
9807;SDS011;4943;52.550;13.462;2023-01-24T01:08:28;7.93;;;4.10;;
9807;SDS011;4943;52.550;13.462;2023-01-24T01:10:58;9.40;;;5.10;;
9807;SDS011;4943;52.550;13.462;2023-01-24T01:13:27;9.40;;;5.00;;
9807;SDS011;4943;52.550;13.462;2023-01-24T01:16:02;6.03;;;4.30;;
9807;SDS011;4943;52.550;13.462;2023-01-24T01:18:31;8.13;;;4.50;;
9807;SDS011;4943;52.550;13.462;2023-01-24T01:21:00;7.57;;;4.53;;
9807;SDS011;4943;52.550;13.462;2023-01-24T01:23:29;7.60;;;4.73;;
9807;SDS011;4943;52.550;13.462;2023-01-24T01:25:59;7.00;;;4.80;;
9807;SDS011;4943;52.550;13.462;2023-01-24T01:28:28;7.97;;;4.63;;
9807;SDS011;4943;52.550;13.462;2023-01-24T01:30:57;7.93;;;4.47;;
9807;SDS011;4943;52.550;13.462;2023-01-24T01:33:26;7.40;;;4.70;;
9807;SDS011;4943;52.550;13.462;2023-01-24T01:35:54;7.23;;;4.43;;
9807;SDS011;4943;52.550;13.462;2023-01-24T01:38:22;5.80;;;4.37;;
9807;SDS011;4943;52.550;13.462;2023-01-24T01:40:54;4.73;;;3.23;;
9807;SDS011;4943;52.550;13.462;2023-01-24T01:43:25;5.03;;;3.67;;
9807;SDS011;4943;52.550;13.462;2023-01-24T01:45:54;8.10;;;3.57;;
9807;SDS011;4943;52.550;13.462;2023-01-24T01:48:29;4.63;;;3.20;;
9807;SDS011;4943;52.550;13.462;2023-01-24T01:51:05;4.57;;;3.60;;
9807;SDS011;4943;52.550;13.462;2023-01-24T01:53:40;5.40;;;3.57;;
9807;SDS011;4943;52.550;13.462;2023-01-24T01:56:13;5.80;;;3.10;;
9807;SDS011;4943;52.550;13.462;2023-01-24T01:58:49;5.77;;;3.60;;
9807;SDS011;4943;52.550;13.462;2023-01-24T02:01:18;4.60;;;3.03;;
9807;SDS011;4943;52.550;13.462;2023-01-24T02:03:49;6.93;;;3.53;;
9807;SDS011;4943;52.550;13.462;2023-01-24T02:06:27;5.80;;;3.27;;
9807;SDS011;4943;52.550;13.462;2023-01-24T02:09:04;4.80;;;3.10;;
9807;SDS011;4943;52.550;13.462;2023-01-24T02:11:36;5.50;;;3.53;;
9807;SDS011;4943;52.550;13.462;2023-01-24T02:14:09;4.73;;;3.47;;
9807;SDS011;4943;52.550;13.462;2023-01-24T02:16:56;4.67;;;2.63;;
9807;SDS011;4943;52.550;13.462;2023-01-24T02:19:28;3.73;;;3.03;;
9807;SDS011;4943;52.550;13.462;2023-01-24T02:22:15;5.33;;;3.30;;
9807;SDS011;4943;52.550;13.462;2023-01-24T02:24:50;4.70;;;2.93;;
9807;SDS011;4943;52.550;13.462;2023-01-24T02:27:24;4.73;;;2.77;;
9807;SDS011;4943;52.550;13.462;2023-01-24T02:29:55;2.93;;;2.53;;
9807;SDS011;4943;52.550;13.462;2023-01-24T02:32:24;6.57;;;3.03;;
9807;SDS011;4943;52.550;13.462;2023-01-24T02:34:53;3.13;;;2.47;;
9807;SDS011;4943;52.550;13.462;2023-01-24T02:37:21;4.00;;;3.13;;
9807;SDS011;4943;52.550;13.462;2023-01-24T02:39:53;4.23;;;3.30;;
9807;SDS011;4943;52.550;13.462;2023-01-24T02:42:25;3.50;;;2.50;;
9807;SDS011;4943;52.550;13.462;2023-01-24T02:45:00;3.67;;;2.67;;
9807;SDS011;4943;52.550;13.462;2023-01-24T02:47:34;4.00;;;2.77;;
9807;SDS011;4943;52.550;13.462;2023-01-24T02:50:04;4.47;;;2.90;;
9807;SDS011;4943;52.550;13.462;2023-01-24T02:52:34;4.93;;;3.53;;
9807;SDS011;4943;52.550;13.462;2023-01-24T02:55:20;5.13;;;3.53;;
9807;SDS011;4943;52.550;13.462;2023-01-24T02:57:50;5.60;;;3.57;;
9807;SDS011;4943;52.550;13.462;2023-01-24T03:00:33;3.47;;;2.87;;
9807;SDS011;4943;52.550;13.462;2023-01-24T03:03:01;3.77;;;2.30;;
9807;SDS011;4943;52.550;13.462;2023-01-24T03:05:30;3.80;;;2.87;;
9807;SDS011;4943;52.550;13.462;2023-01-24T03:08:06;5.00;;;3.13;;
9807;SDS011;4943;52.550;13.462;2023-01-24T03:10:34;4.10;;;2.80;;
9807;SDS011;4943;52.550;13.462;2023-01-24T03:13:04;4.23;;;2.73;;
9807;SDS011;4943;52.550;13.462;2023-01-24T03:15:50;4.93;;;3.43;;
9807;SDS011;4943;52.550;13.462;2023-01-24T03:18:35;5.07;;;3.37;;
9807;SDS011;4943;52.550;13.462;2023-01-24T03:21:21;3.60;;;2.77;;
9807;SDS011;4943;52.550;13.462;2023-01-24T03:24:07;3.13;;;2.33;;
9807;SDS011;4943;52.550;13.462;2023-01-24T03:26:53;5.17;;;3.00;;
9807;SDS011;4943;52.550;13.462;2023-01-24T03:29:40;2.73;;;2.37;;
9807;SDS011;4943;52.550;13.462;2023-01-24T03:32:26;5.50;;;2.73;;
9807;SDS011;4943;52.550;13.462;2023-01-24T03:35:11;4.23;;;2.83;;
9807;SDS011;4943;52.550;13.462;2023-01-24T03:37:40;5.33;;;3.20;;
9807;SDS011;4943;52.550;13.462;2023-01-24T03:40:25;3.33;;;2.80;;
9807;SDS011;4943;52.550;13.462;2023-01-24T03:42:54;2.77;;;2.17;;
9807;SDS011;4943;52.550;13.462;2023-01-24T03:45:24;5.83;;;3.37;;
9807;SDS011;4943;52.550;13.462;2023-01-24T03:47:55;4.40;;;3.33;;
9807;SDS011;4943;52.550;13.462;2023-01-24T03:50:26;5.10;;;2.87;;
9807;SDS011;4943;52.550;13.462;2023-01-24T03:53:13;4.13;;;3.27;;
9807;SDS011;4943;52.550;13.462;2023-01-24T03:55:42;4.63;;;3.17;;
9807;SDS011;4943;52.550;13.462;2023-01-24T03:58:11;5.40;;;3.17;;
9807;SDS011;4943;52.550;13.462;2023-01-24T04:04:21;6.37;;;3.67;;
9807;SDS011;4943;52.550;13.462;2023-01-24T04:06:49;4.67;;;3.00;;
9807;SDS011;4943;52.550;13.462;2023-01-24T04:09:18;6.13;;;3.50;;
9807;SDS011;4943;52.550;13.462;2023-01-24T04:11:46;8.93;;;3.97;;
9807;SDS011;4943;52.550;13.462;2023-01-24T04:14:14;4.30;;;3.13;;
9807;SDS011;4943;52.550;13.462;2023-01-24T04:16:42;8.87;;;3.43;;
9807;SDS011;4943;52.550;13.462;2023-01-24T04:19:10;3.87;;;2.93;;
9807;SDS011;4943;52.550;13.462;2023-01-24T04:21:40;4.87;;;2.83;;
9807;SDS011;4943;52.550;13.462;2023-01-24T04:24:08;4.10;;;2.80;;
9807;SDS011;4943;52.550;13.462;2023-01-24T04:26:37;5.30;;;3.77;;
9807;SDS011;4943;52.550;13.462;2023-01-24T04:29:05;3.83;;;2.90;;
9807;SDS011;4943;52.550;13.462;2023-01-24T04:31:33;4.70;;;2.80;;
9807;SDS011;4943;52.550;13.462;2023-01-24T04:34:01;5.87;;;2.90;;
9807;SDS011;4943;52.550;13.462;2023-01-24T04:36:30;4.77;;;3.00;;
9807;SDS011;4943;52.550;13.462;2023-01-24T04:38:59;4.60;;;3.40;;
9807;SDS011;4943;52.550;13.462;2023-01-24T04:41:28;4.70;;;3.10;;
9807;SDS011;4943;52.550;13.462;2023-01-24T04:43:56;4.37;;;3.47;;
9807;SDS011;4943;52.550;13.462;2023-01-24T04:46:24;5.37;;;3.70;;
9807;SDS011;4943;52.550;13.462;2023-01-24T04:48:54;4.17;;;3.30;;
9807;SDS011;4943;52.550;13.462;2023-01-24T04:51:22;7.37;;;4.17;;
9807;SDS011;4943;52.550;13.462;2023-01-24T04:53:51;5.53;;;3.77;;
9807;SDS011;4943;52.550;13.462;2023-01-24T04:56:20;4.27;;;3.10;;
9807;SDS011;4943;52.550;13.462;2023-01-24T04:58:49;5.40;;;3.53;;
9807;SDS011;4943;52.550;13.462;2023-01-24T05:01:17;4.90;;;3.33;;
9807;SDS011;4943;52.550;13.462;2023-01-24T05:03:45;7.70;;;3.40;;
9807;SDS011;4943;52.550;13.462;2023-01-24T05:06:13;4.23;;;3.37;;
9807;SDS011;4943;52.550;13.462;2023-01-24T05:08:42;5.07;;;3.73;;
9807;SDS011;4943;52.550;13.462;2023-01-24T05:11:10;6.33;;;3.87;;
9807;SDS011;4943;52.550;13.462;2023-01-24T05:13:41;5.30;;;3.80;;
9807;SDS011;4943;52.550;13.462;2023-01-24T05:16:09;4.83;;;3.53;;
9807;SDS011;4943;52.550;13.462;2023-01-24T05:18:38;5.57;;;3.90;;
9807;SDS011;4943;52.550;13.462;2023-01-24T05:21:07;6.57;;;3.50;;
9807;SDS011;4943;52.550;13.462;2023-01-24T05:23:37;5.93;;;3.97;;
9807;SDS011;4943;52.550;13.462;2023-01-24T05:26:06;5.50;;;3.27;;
9807;SDS011;4943;52.550;13.462;2023-01-24T05:28:35;4.27;;;3.33;;
9807;SDS011;4943;52.550;13.462;2023-01-24T05:31:05;5.63;;;3.67;;
9807;SDS011;4943;52.550;13.462;2023-01-24T05:33:34;8.00;;;3.20;;
9807;SDS011;4943;52.550;13.462;2023-01-24T05:36:04;5.07;;;3.27;;
9807;SDS011;4943;52.550;13.462;2023-01-24T05:38:34;6.93;;;3.50;;
9807;SDS011;4943;52.550;13.462;2023-01-24T05:41:03;5.03;;;3.70;;
9807;SDS011;4943;52.550;13.462;2023-01-24T05:43:32;5.57;;;3.33;;
9807;SDS011;4943;52.550;13.462;2023-01-24T05:46:02;5.07;;;3.53;;
9807;SDS011;4943;52.550;13.462;2023-01-24T05:48:33;4.87;;;3.60;;
9807;SDS011;4943;52.550;13.462;2023-01-24T05:51:02;4.33;;;3.67;;
9807;SDS011;4943;52.550;13.462;2023-01-24T05:53:32;3.60;;;3.00;;
9807;SDS011;4943;52.550;13.462;2023-01-24T05:56:03;8.17;;;4.03;;
9807;SDS011;4943;52.550;13.462;2023-01-24T05:58:34;5.90;;;3.87;;
9807;SDS011;4943;52.550;13.462;2023-01-24T06:01:08;7.10;;;3.73;;
9807;SDS011;4943;52.550;13.462;2023-01-24T06:03:37;5.07;;;3.50;;
9807;SDS011;4943;52.550;13.462;2023-01-24T06:06:07;5.93;;;3.43;;
9807;SDS011;4943;52.550;13.462;2023-01-24T06:08:40;5.93;;;3.73;;
9807;SDS011;4943;52.550;13.462;2023-01-24T06:11:12;6.40;;;3.80;;
9807;SDS011;4943;52.550;13.462;2023-01-24T06:13:42;6.67;;;3.93;;
9807;SDS011;4943;52.550;13.462;2023-01-24T06:16:13;7.20;;;3.90;;
9807;SDS011;4943;52.550;13.462;2023-01-24T06:18:42;5.87;;;4.20;;
9807;SDS011;4943;52.550;13.462;2023-01-24T06:21:15;5.83;;;3.33;;
9807;SDS011;4943;52.550;13.462;2023-01-24T06:23:51;5.80;;;3.63;;
9807;SDS011;4943;52.550;13.462;2023-01-24T06:26:20;5.40;;;2.93;;
9807;SDS011;4943;52.550;13.462;2023-01-24T06:28:49;6.53;;;4.57;;
9807;SDS011;4943;52.550;13.462;2023-01-24T06:31:22;5.87;;;3.73;;
9807;SDS011;4943;52.550;13.462;2023-01-24T06:34:06;5.20;;;4.00;;
9807;SDS011;4943;52.550;13.462;2023-01-24T06:36:48;6.73;;;3.93;;
9807;SDS011;4943;52.550;13.462;2023-01-24T06:39:26;9.13;;;3.90;;
9807;SDS011;4943;52.550;13.462;2023-01-24T06:41:55;9.67;;;4.70;;
9807;SDS011;4943;52.550;13.462;2023-01-24T06:44:24;7.03;;;3.77;;
9807;SDS011;4943;52.550;13.462;2023-01-24T06:46:54;9.67;;;4.93;;
9807;SDS011;4943;52.550;13.462;2023-01-24T06:49:22;11.40;;;5.30;;
9807;SDS011;4943;52.550;13.462;2023-01-24T06:51:51;8.40;;;4.53;;
9807;SDS011;4943;52.550;13.462;2023-01-24T06:54:19;8.50;;;4.33;;
9807;SDS011;4943;52.550;13.462;2023-01-24T06:56:47;8.37;;;3.90;;
9807;SDS011;4943;52.550;13.462;2023-01-24T06:59:16;8.30;;;5.37;;
9807;SDS011;4943;52.550;13.462;2023-01-24T07:01:46;10.27;;;5.03;;
9807;SDS011;4943;52.550;13.462;2023-01-24T07:04:15;15.47;;;5.17;;
9807;SDS011;4943;52.550;13.462;2023-01-24T07:06:44;12.53;;;5.77;;
9807;SDS011;4943;52.550;13.462;2023-01-24T07:09:18;14.13;;;5.80;;
9807;SDS011;4943;52.550;13.462;2023-01-24T07:11:47;9.63;;;4.40;;
9807;SDS011;4943;52.550;13.462;2023-01-24T07:14:19;10.57;;;5.53;;
9807;SDS011;4943;52.550;13.462;2023-01-24T07:16:47;13.93;;;5.53;;
9807;SDS011;4943;52.550;13.462;2023-01-24T07:19:19;14.27;;;6.10;;
9807;SDS011;4943;52.550;13.462;2023-01-24T07:21:50;9.13;;;4.60;;
9807;SDS011;4943;52.550;13.462;2023-01-24T07:24:21;9.23;;;4.57;;
9807;SDS011;4943;52.550;13.462;2023-01-24T07:26:52;10.63;;;4.13;;
9807;SDS011;4943;52.550;13.462;2023-01-24T07:29:21;12.03;;;5.93;;
9807;SDS011;4943;52.550;13.462;2023-01-24T07:31:49;12.93;;;5.53;;
9807;SDS011;4943;52.550;13.462;2023-01-24T07:34:19;16.17;;;5.00;;
9807;SDS011;4943;52.550;13.462;2023-01-24T07:36:47;15.33;;;7.00;;
9807;SDS011;4943;52.550;13.462;2023-01-24T07:39:16;13.77;;;6.57;;
9807;SDS011;4943;52.550;13.462;2023-01-24T07:41:44;14.57;;;6.50;;
9807;SDS011;4943;52.550;13.462;2023-01-24T07:44:13;18.63;;;6.37;;
9807;SDS011;4943;52.550;13.462;2023-01-24T07:46:41;14.87;;;7.03;;
9807;SDS011;4943;52.550;13.462;2023-01-24T07:49:10;14.23;;;5.57;;
9807;SDS011;4943;52.550;13.462;2023-01-24T07:51:39;17.97;;;6.37;;
9807;SDS011;4943;52.550;13.462;2023-01-24T07:54:08;14.30;;;5.77;;
9807;SDS011;4943;52.550;13.462;2023-01-24T07:56:36;13.97;;;6.13;;
9807;SDS011;4943;52.550;13.462;2023-01-24T07:59:04;14.67;;;6.40;;
9807;SDS011;4943;52.550;13.462;2023-01-24T08:01:33;18.53;;;7.83;;
9807;SDS011;4943;52.550;13.462;2023-01-24T08:04:01;12.80;;;6.30;;
9807;SDS011;4943;52.550;13.462;2023-01-24T08:06:29;26.23;;;7.90;;
9807;SDS011;4943;52.550;13.462;2023-01-24T08:08:59;16.40;;;7.73;;
9807;SDS011;4943;52.550;13.462;2023-01-24T08:11:28;17.23;;;7.60;;
9807;SDS011;4943;52.550;13.462;2023-01-24T08:13:56;17.43;;;7.70;;
9807;SDS011;4943;52.550;13.462;2023-01-24T08:16:24;22.10;;;8.23;;
9807;SDS011;4943;52.550;13.462;2023-01-24T08:18:52;19.83;;;7.47;;
9807;SDS011;4943;52.550;13.462;2023-01-24T08:21:21;21.03;;;7.20;;
9807;SDS011;4943;52.550;13.462;2023-01-24T08:23:49;19.33;;;7.77;;
9807;SDS011;4943;52.550;13.462;2023-01-24T08:26:19;18.63;;;8.97;;
9807;SDS011;4943;52.550;13.462;2023-01-24T08:28:48;22.40;;;8.17;;
9807;SDS011;4943;52.550;13.462;2023-01-24T08:31:16;22.97;;;9.00;;
9807;SDS011;4943;52.550;13.462;2023-01-24T08:33:45;21.63;;;8.63;;
9807;SDS011;4943;52.550;13.462;2023-01-24T08:36:13;20.80;;;9.27;;
9807;SDS011;4943;52.550;13.462;2023-01-24T08:38:41;20.73;;;8.43;;
9807;SDS011;4943;52.550;13.462;2023-01-24T08:41:09;19.77;;;7.07;;
9807;SDS011;4943;52.550;13.462;2023-01-24T08:43:39;21.33;;;8.93;;
9807;SDS011;4943;52.550;13.462;2023-01-24T08:46:08;21.00;;;8.70;;
9807;SDS011;4943;52.550;13.462;2023-01-24T08:48:37;20.10;;;9.00;;
9807;SDS011;4943;52.550;13.462;2023-01-24T08:51:05;21.20;;;9.37;;
9807;SDS011;4943;52.550;13.462;2023-01-24T08:53:34;20.37;;;7.83;;
9807;SDS011;4943;52.550;13.462;2023-01-24T08:56:02;14.27;;;6.43;;
9807;SDS011;4943;52.550;13.462;2023-01-24T08:58:33;25.90;;;9.17;;
9807;SDS011;4943;52.550;13.462;2023-01-24T09:01:06;21.07;;;8.80;;
9807;SDS011;4943;52.550;13.462;2023-01-24T09:03:34;27.67;;;8.73;;
9807;SDS011;4943;52.550;13.462;2023-01-24T09:06:03;23.77;;;9.07;;
9807;SDS011;4943;52.550;13.462;2023-01-24T09:08:32;27.00;;;10.20;;
9807;SDS011;4943;52.550;13.462;2023-01-24T09:11:02;28.97;;;10.17;;
9807;SDS011;4943;52.550;13.462;2023-01-24T09:13:30;27.57;;;9.97;;
9807;SDS011;4943;52.550;13.462;2023-01-24T09:15:59;32.73;;;9.53;;
9807;SDS011;4943;52.550;13.462;2023-01-24T09:18:28;22.10;;;9.13;;
9807;SDS011;4943;52.550;13.462;2023-01-24T09:20:59;20.70;;;9.50;;
9807;SDS011;4943;52.550;13.462;2023-01-24T09:23:29;17.30;;;8.53;;
9807;SDS011;4943;52.550;13.462;2023-01-24T09:25:57;30.90;;;10.70;;
9807;SDS011;4943;52.550;13.462;2023-01-24T09:28:26;22.20;;;9.27;;
9807;SDS011;4943;52.550;13.462;2023-01-24T09:30:54;22.40;;;8.67;;
9807;SDS011;4943;52.550;13.462;2023-01-24T09:33:22;28.43;;;10.80;;
9807;SDS011;4943;52.550;13.462;2023-01-24T09:35:53;22.37;;;7.53;;
9807;SDS011;4943;52.550;13.462;2023-01-24T09:38:23;29.00;;;10.17;;
9807;SDS011;4943;52.550;13.462;2023-01-24T09:40:54;20.60;;;8.83;;
9807;SDS011;4943;52.550;13.462;2023-01-24T09:43:38;24.23;;;10.20;;
9807;SDS011;4943;52.550;13.462;2023-01-24T09:46:15;21.70;;;9.47;;
9807;SDS011;4943;52.550;13.462;2023-01-24T09:48:49;29.23;;;9.10;;
9807;SDS011;4943;52.550;13.462;2023-01-24T09:51:24;24.10;;;8.90;;
9807;SDS011;4943;52.550;13.462;2023-01-24T09:53:56;18.40;;;8.27;;
9807;SDS011;4943;52.550;13.462;2023-01-24T09:56:27;21.70;;;9.17;;
9807;SDS011;4943;52.550;13.462;2023-01-24T09:59:13;24.27;;;9.83;;
9807;SDS011;4943;52.550;13.462;2023-01-24T10:01:46;22.40;;;9.40;;
9807;SDS011;4943;52.550;13.462;2023-01-24T10:04:16;26.57;;;10.83;;
9807;SDS011;4943;52.550;13.462;2023-01-24T10:06:56;25.17;;;10.10;;
9807;SDS011;4943;52.550;13.462;2023-01-24T10:09:44;23.97;;;10.17;;
9807;SDS011;4943;52.550;13.462;2023-01-24T10:12:30;32.83;;;10.53;;
9807;SDS011;4943;52.550;13.462;2023-01-24T10:15:12;26.00;;;10.27;;
9807;SDS011;4943;52.550;13.462;2023-01-24T10:17:56;17.10;;;8.90;;
9807;SDS011;4943;52.550;13.462;2023-01-24T10:20:44;24.13;;;9.10;;
9807;SDS011;4943;52.550;13.462;2023-01-24T10:23:23;24.40;;;10.07;;
9807;SDS011;4943;52.550;13.462;2023-01-24T10:25:55;22.80;;;9.90;;
9807;SDS011;4943;52.550;13.462;2023-01-24T10:28:27;23.37;;;8.90;;
9807;SDS011;4943;52.550;13.462;2023-01-24T10:30:58;21.67;;;8.77;;
9807;SDS011;4943;52.550;13.462;2023-01-24T10:33:33;16.03;;;7.70;;
9807;SDS011;4943;52.550;13.462;2023-01-24T10:36:05;19.77;;;7.37;;
9807;SDS011;4943;52.550;13.462;2023-01-24T10:38:40;16.80;;;9.60;;
9807;SDS011;4943;52.550;13.462;2023-01-24T10:41:13;18.10;;;8.23;;
9807;SDS011;4943;52.550;13.462;2023-01-24T10:43:47;17.87;;;8.47;;
9807;SDS011;4943;52.550;13.462;2023-01-24T10:46:27;17.07;;;7.40;;
9807;SDS011;4943;52.550;13.462;2023-01-24T10:49:17;18.97;;;7.60;;
9807;SDS011;4943;52.550;13.462;2023-01-24T10:52:09;27.40;;;10.10;;
9807;SDS011;4943;52.550;13.462;2023-01-24T10:54:45;20.43;;;8.63;;
9807;SDS011;4943;52.550;13.462;2023-01-24T10:57:38;19.73;;;9.40;;
9807;SDS011;4943;52.550;13.462;2023-01-24T11:00:23;23.50;;;9.17;;
9807;SDS011;4943;52.550;13.462;2023-01-24T11:02:57;17.70;;;8.27;;
9807;SDS011;4943;52.550;13.462;2023-01-24T11:05:34;19.17;;;7.67;;
9807;SDS011;4943;52.550;13.462;2023-01-24T11:08:10;16.17;;;7.60;;
9807;SDS011;4943;52.550;13.462;2023-01-24T11:10:47;18.23;;;8.10;;
9807;SDS011;4943;52.550;13.462;2023-01-24T11:13:28;15.13;;;7.67;;
9807;SDS011;4943;52.550;13.462;2023-01-24T11:16:02;15.57;;;6.53;;
9807;SDS011;4943;52.550;13.462;2023-01-24T11:18:32;19.13;;;9.40;;
9807;SDS011;4943;52.550;13.462;2023-01-24T11:21:09;19.33;;;8.00;;
9807;SDS011;4943;52.550;13.462;2023-01-24T11:23:39;15.80;;;8.40;;
9807;SDS011;4943;52.550;13.462;2023-01-24T11:26:20;16.87;;;8.10;;
9807;SDS011;4943;52.550;13.462;2023-01-24T11:28:58;15.47;;;8.07;;
9807;SDS011;4943;52.550;13.462;2023-01-24T11:31:29;14.50;;;7.67;;
9807;SDS011;4943;52.550;13.462;2023-01-24T11:34:04;21.77;;;8.80;;
9807;SDS011;4943;52.550;13.462;2023-01-24T11:36:50;15.27;;;8.00;;
9807;SDS011;4943;52.550;13.462;2023-01-24T11:39:31;14.63;;;6.33;;
9807;SDS011;4943;52.550;13.462;2023-01-24T11:42:12;14.37;;;7.40;;
9807;SDS011;4943;52.550;13.462;2023-01-24T11:44:54;16.20;;;7.80;;
9807;SDS011;4943;52.550;13.462;2023-01-24T11:47:36;14.57;;;7.73;;
9807;SDS011;4943;52.550;13.462;2023-01-24T11:50:22;20.77;;;8.60;;
9807;SDS011;4943;52.550;13.462;2023-01-24T11:53:05;17.83;;;7.57;;
9807;SDS011;4943;52.550;13.462;2023-01-24T11:55:45;22.80;;;6.93;;
9807;SDS011;4943;52.550;13.462;2023-01-24T11:58:27;16.03;;;7.50;;
9807;SDS011;4943;52.550;13.462;2023-01-24T12:01:09;16.03;;;7.83;;
9807;SDS011;4943;52.550;13.462;2023-01-24T12:03:47;18.67;;;7.37;;
9807;SDS011;4943;52.550;13.462;2023-01-24T12:06:30;16.03;;;7.77;;
9807;SDS011;4943;52.550;13.462;2023-01-24T12:09:10;15.60;;;7.77;;
9807;SDS011;4943;52.550;13.462;2023-01-24T12:11:46;16.57;;;8.27;;
9807;SDS011;4943;52.550;13.462;2023-01-24T12:17:33;17.07;;;8.07;;
9807;SDS011;4943;52.550;13.462;2023-01-24T12:20:21;16.07;;;7.80;;
9807;SDS011;4943;52.550;13.462;2023-01-24T12:22:59;14.30;;;7.33;;
9807;SDS011;4943;52.550;13.462;2023-01-24T12:25:32;21.23;;;8.50;;
9807;SDS011;4943;52.550;13.462;2023-01-24T12:28:04;19.60;;;8.70;;
9807;SDS011;4943;52.550;13.462;2023-01-24T12:30:39;24.43;;;7.73;;
9807;SDS011;4943;52.550;13.462;2023-01-24T12:33:11;14.57;;;7.20;;
9807;SDS011;4943;52.550;13.462;2023-01-24T12:35:50;16.60;;;7.37;;
9807;SDS011;4943;52.550;13.462;2023-01-24T12:38:24;16.50;;;7.83;;
9807;SDS011;4943;52.550;13.462;2023-01-24T12:41:03;17.90;;;7.80;;
9807;SDS011;4943;52.550;13.462;2023-01-24T12:43:42;19.20;;;7.43;;
9807;SDS011;4943;52.550;13.462;2023-01-24T12:46:22;15.40;;;8.13;;
9807;SDS011;4943;52.550;13.462;2023-01-24T12:48:58;12.90;;;7.20;;
9807;SDS011;4943;52.550;13.462;2023-01-24T12:51:42;22.13;;;8.23;;
9807;SDS011;4943;52.550;13.462;2023-01-24T12:54:15;21.53;;;7.40;;
9807;SDS011;4943;52.550;13.462;2023-01-24T12:56:49;17.80;;;7.97;;
9807;SDS011;4943;52.550;13.462;2023-01-24T12:59:23;12.70;;;8.00;;
9807;SDS011;4943;52.550;13.462;2023-01-24T13:02:02;17.63;;;7.63;;
9807;SDS011;4943;52.550;13.462;2023-01-24T13:04:55;16.53;;;7.53;;
9807;SDS011;4943;52.550;13.462;2023-01-24T13:07:40;13.87;;;6.53;;
9807;SDS011;4943;52.550;13.462;2023-01-24T13:10:17;17.47;;;7.07;;
9807;SDS011;4943;52.550;13.462;2023-01-24T13:12:49;14.63;;;7.03;;
9807;SDS011;4943;52.550;13.462;2023-01-24T13:15:20;16.17;;;7.60;;
9807;SDS011;4943;52.550;13.462;2023-01-24T13:18:01;11.97;;;6.80;;
9807;SDS011;4943;52.550;13.462;2023-01-24T13:20:45;16.83;;;7.50;;
9807;SDS011;4943;52.550;13.462;2023-01-24T13:23:34;16.17;;;7.17;;
9807;SDS011;4943;52.550;13.462;2023-01-24T13:26:26;17.77;;;8.87;;
9807;SDS011;4943;52.550;13.462;2023-01-24T13:29:17;16.10;;;7.63;;
9807;SDS011;4943;52.550;13.462;2023-01-24T13:31:58;20.70;;;8.40;;
9807;SDS011;4943;52.550;13.462;2023-01-24T13:34:35;16.70;;;7.40;;
9807;SDS011;4943;52.550;13.462;2023-01-24T13:37:12;15.13;;;7.20;;
9807;SDS011;4943;52.550;13.462;2023-01-24T13:39:46;13.80;;;6.93;;
9807;SDS011;4943;52.550;13.462;2023-01-24T13:42:31;13.10;;;7.43;;
9807;SDS011;4943;52.550;13.462;2023-01-24T13:51:22;18.57;;;6.83;;
9807;SDS011;4943;52.550;13.462;2023-01-24T13:53:59;15.70;;;6.40;;
9807;SDS011;4943;52.550;13.462;2023-01-24T13:56:28;12.60;;;6.67;;
9807;SDS011;4943;52.550;13.462;2023-01-24T13:58:58;14.17;;;6.17;;
9807;SDS011;4943;52.550;13.462;2023-01-24T14:01:27;12.70;;;5.77;;
9807;SDS011;4943;52.550;13.462;2023-01-24T14:03:56;16.97;;;7.23;;
9807;SDS011;4943;52.550;13.462;2023-01-24T14:06:38;15.00;;;7.67;;
9807;SDS011;4943;52.550;13.462;2023-01-24T14:09:12;11.03;;;6.20;;
9807;SDS011;4943;52.550;13.462;2023-01-24T14:11:52;11.47;;;6.53;;
9807;SDS011;4943;52.550;13.462;2023-01-24T14:14:29;12.47;;;6.30;;
9807;SDS011;4943;52.550;13.462;2023-01-24T14:17:00;17.70;;;7.97;;
9807;SDS011;4943;52.550;13.462;2023-01-24T14:19:47;12.80;;;5.97;;
9807;SDS011;4943;52.550;13.462;2023-01-24T14:22:19;16.50;;;7.20;;
9807;SDS011;4943;52.550;13.462;2023-01-24T14:24:55;16.43;;;6.10;;
9807;SDS011;4943;52.550;13.462;2023-01-24T14:27:34;13.60;;;7.17;;
9807;SDS011;4943;52.550;13.462;2023-01-24T14:32:59;16.17;;;6.10;;
9807;SDS011;4943;52.550;13.462;2023-01-24T14:35:33;10.60;;;6.27;;
9807;SDS011;4943;52.550;13.462;2023-01-24T14:38:17;14.67;;;6.47;;
9807;SDS011;4943;52.550;13.462;2023-01-24T14:40:47;12.87;;;6.00;;
9807;SDS011;4943;52.550;13.462;2023-01-24T14:43:18;10.87;;;6.07;;
9807;SDS011;4943;52.550;13.462;2023-01-24T14:45:49;18.23;;;7.93;;
9807;SDS011;4943;52.550;13.462;2023-01-24T14:48:20;14.13;;;6.20;;
9807;SDS011;4943;52.550;13.462;2023-01-24T14:50:57;13.23;;;6.97;;
9807;SDS011;4943;52.550;13.462;2023-01-24T14:53:32;16.83;;;5.93;;
9807;SDS011;4943;52.550;13.462;2023-01-24T14:56:02;12.93;;;6.47;;
9807;SDS011;4943;52.550;13.462;2023-01-24T14:58:35;14.70;;;6.70;;
9807;SDS011;4943;52.550;13.462;2023-01-24T15:01:19;17.43;;;7.43;;
9807;SDS011;4943;52.550;13.462;2023-01-24T15:03:51;10.70;;;6.63;;
9807;SDS011;4943;52.550;13.462;2023-01-24T15:06:20;10.90;;;6.13;;
9807;SDS011;4943;52.550;13.462;2023-01-24T15:08:54;14.77;;;6.17;;
9807;SDS011;4943;52.550;13.462;2023-01-24T15:11:24;12.10;;;6.37;;
9807;SDS011;4943;52.550;13.462;2023-01-24T15:13:57;14.83;;;7.23;;
9807;SDS011;4943;52.550;13.462;2023-01-24T15:16:35;16.03;;;6.87;;
9807;SDS011;4943;52.550;13.462;2023-01-24T15:19:10;15.53;;;6.60;;
9807;SDS011;4943;52.550;13.462;2023-01-24T15:21:44;13.37;;;6.73;;
9807;SDS011;4943;52.550;13.462;2023-01-24T15:24:18;13.10;;;6.97;;
9807;SDS011;4943;52.550;13.462;2023-01-24T15:26:50;14.87;;;6.80;;
9807;SDS011;4943;52.550;13.462;2023-01-24T15:32:20;19.50;;;6.57;;
9807;SDS011;4943;52.550;13.462;2023-01-24T15:35:12;14.00;;;6.50;;
9807;SDS011;4943;52.550;13.462;2023-01-24T15:38:01;12.57;;;6.27;;
9807;SDS011;4943;52.550;13.462;2023-01-24T15:40:50;13.57;;;6.50;;
9807;SDS011;4943;52.550;13.462;2023-01-24T15:43:21;13.73;;;6.10;;
9807;SDS011;4943;52.550;13.462;2023-01-24T15:46:21;14.30;;;6.80;;
9807;SDS011;4943;52.550;13.462;2023-01-24T15:49:17;13.83;;;6.17;;